sensor_id;sensor_type;location;lat;lon;timestamp;P1;durP1;ratioP1;P2;durP2;ratioP2
61038;SDS011;46919;45.816;3.104;2022-10-16T00:00:52;3.33;;;1.65;;
61038;SDS011;46919;45.816;3.104;2022-10-16T00:03:17;2.72;;;1.60;;
61038;SDS011;46919;45.816;3.104;2022-10-16T00:05:43;3.85;;;1.52;;
61038;SDS011;46919;45.816;3.104;2022-10-16T00:08:10;4.25;;;1.52;;
61038;SDS011;46919;45.816;3.104;2022-10-16T00:10:36;5.00;;;1.50;;
61038;SDS011;46919;45.816;3.104;2022-10-16T00:13:03;3.95;;;1.55;;
61038;SDS011;46919;45.816;3.104;2022-10-16T00:15:29;1.90;;;1.42;;
61038;SDS011;46919;45.816;3.104;2022-10-16T00:17:55;2.33;;;1.52;;
61038;SDS011;46919;45.816;3.104;2022-10-16T00:20:20;7.22;;;2.30;;
61038;SDS011;46919;45.816;3.104;2022-10-16T00:22:46;3.17;;;1.40;;
61038;SDS011;46919;45.816;3.104;2022-10-16T00:25:11;3.17;;;1.40;;
61038;SDS011;46919;45.816;3.104;2022-10-16T00:27:36;3.33;;;1.80;;
61038;SDS011;46919;45.816;3.104;2022-10-16T00:30:02;1.70;;;1.60;;
61038;SDS011;46919;45.816;3.104;2022-10-16T00:32:28;2.38;;;1.48;;
61038;SDS011;46919;45.816;3.104;2022-10-16T00:34:53;2.25;;;1.63;;
61038;SDS011;46919;45.816;3.104;2022-10-16T00:37:21;2.42;;;1.73;;
61038;SDS011;46919;45.816;3.104;2022-10-16T00:39:47;3.28;;;1.80;;
61038;SDS011;46919;45.816;3.104;2022-10-16T00:42:18;2.70;;;1.60;;
61038;SDS011;46919;45.816;3.104;2022-10-16T00:49:53;5.43;;;2.08;;
61038;SDS011;46919;45.816;3.104;2022-10-16T00:52:23;2.35;;;1.70;;
61038;SDS011;46919;45.816;3.104;2022-10-16T00:54:49;2.78;;;1.63;;
61038;SDS011;46919;45.816;3.104;2022-10-16T00:57:17;3.88;;;1.70;;
61038;SDS011;46919;45.816;3.104;2022-10-16T00:59:43;2.50;;;1.65;;
61038;SDS011;46919;45.816;3.104;2022-10-16T01:02:10;3.22;;;1.50;;
61038;SDS011;46919;45.816;3.104;2022-10-16T01:04:39;5.25;;;1.40;;
61038;SDS011;46919;45.816;3.104;2022-10-16T01:07:20;5.07;;;1.60;;
61038;SDS011;46919;45.816;3.104;2022-10-16T01:15:19;3.83;;;1.45;;
61038;SDS011;46919;45.816;3.104;2022-10-16T01:29:09;4.57;;;1.45;;
61038;SDS011;46919;45.816;3.104;2022-10-16T01:31:44;3.30;;;1.25;;
61038;SDS011;46919;45.816;3.104;2022-10-16T01:34:16;2.72;;;1.10;;
61038;SDS011;46919;45.816;3.104;2022-10-16T01:36:56;1.33;;;1.13;;
61038;SDS011;46919;45.816;3.104;2022-10-16T01:39:29;3.75;;;1.35;;
61038;SDS011;46919;45.816;3.104;2022-10-16T01:42:01;3.63;;;1.30;;
61038;SDS011;46919;45.816;3.104;2022-10-16T01:44:32;4.03;;;1.88;;
61038;SDS011;46919;45.816;3.104;2022-10-16T01:47:01;1.90;;;1.05;;
61038;SDS011;46919;45.816;3.104;2022-10-16T01:49:28;4.32;;;1.40;;
61038;SDS011;46919;45.816;3.104;2022-10-16T01:51:58;5.22;;;1.45;;
61038;SDS011;46919;45.816;3.104;2022-10-16T01:54:26;4.20;;;1.35;;
61038;SDS011;46919;45.816;3.104;2022-10-16T01:56:54;2.20;;;1.20;;
61038;SDS011;46919;45.816;3.104;2022-10-16T01:59:21;5.03;;;1.08;;
61038;SDS011;46919;45.816;3.104;2022-10-16T02:01:52;2.35;;;0.93;;
61038;SDS011;46919;45.816;3.104;2022-10-16T02:04:24;1.90;;;1.20;;
61038;SDS011;46919;45.816;3.104;2022-10-16T02:06:57;4.55;;;1.30;;
61038;SDS011;46919;45.816;3.104;2022-10-16T02:09:23;1.25;;;1.02;;
61038;SDS011;46919;45.816;3.104;2022-10-16T02:11:49;3.20;;;1.20;;
61038;SDS011;46919;45.816;3.104;2022-10-16T02:14:19;5.35;;;1.10;;
61038;SDS011;46919;45.816;3.104;2022-10-16T02:16:47;3.72;;;1.00;;
61038;SDS011;46919;45.816;3.104;2022-10-16T02:19:13;3.60;;;1.10;;
61038;SDS011;46919;45.816;3.104;2022-10-16T02:27:05;2.85;;;1.02;;
61038;SDS011;46919;45.816;3.104;2022-10-16T02:29:38;1.92;;;1.05;;
61038;SDS011;46919;45.816;3.104;2022-10-16T02:32:13;2.38;;;1.10;;
61038;SDS011;46919;45.816;3.104;2022-10-16T02:34:40;3.30;;;1.30;;
61038;SDS011;46919;45.816;3.104;2022-10-16T02:37:06;2.95;;;1.13;;
61038;SDS011;46919;45.816;3.104;2022-10-16T02:39:33;1.33;;;0.90;;
61038;SDS011;46919;45.816;3.104;2022-10-16T02:41:59;1.75;;;1.10;;
61038;SDS011;46919;45.816;3.104;2022-10-16T02:44:24;1.92;;;0.98;;
61038;SDS011;46919;45.816;3.104;2022-10-16T02:46:50;1.17;;;0.90;;
61038;SDS011;46919;45.816;3.104;2022-10-16T02:49:15;1.17;;;0.80;;
61038;SDS011;46919;45.816;3.104;2022-10-16T02:51:41;2.08;;;1.00;;
61038;SDS011;46919;45.816;3.104;2022-10-16T02:54:06;2.78;;;1.08;;
61038;SDS011;46919;45.816;3.104;2022-10-16T02:56:31;2.58;;;1.10;;
61038;SDS011;46919;45.816;3.104;2022-10-16T02:58:57;1.92;;;0.90;;
61038;SDS011;46919;45.816;3.104;2022-10-16T03:01:22;2.80;;;0.95;;
61038;SDS011;46919;45.816;3.104;2022-10-16T03:03:48;1.67;;;1.33;;
61038;SDS011;46919;45.816;3.104;2022-10-16T03:06:14;3.30;;;0.88;;
61038;SDS011;46919;45.816;3.104;2022-10-16T03:08:39;3.05;;;1.10;;
61038;SDS011;46919;45.816;3.104;2022-10-16T03:11:05;1.65;;;1.10;;
61038;SDS011;46919;45.816;3.104;2022-10-16T03:13:30;2.60;;;0.90;;
61038;SDS011;46919;45.816;3.104;2022-10-16T03:15:56;3.72;;;1.00;;
61038;SDS011;46919;45.816;3.104;2022-10-16T03:18:21;4.22;;;1.30;;
61038;SDS011;46919;45.816;3.104;2022-10-16T03:20:46;1.98;;;1.13;;
61038;SDS011;46919;45.816;3.104;2022-10-16T03:23:13;2.42;;;1.00;;
61038;SDS011;46919;45.816;3.104;2022-10-16T03:25:39;2.15;;;1.00;;
61038;SDS011;46919;45.816;3.104;2022-10-16T03:28:04;1.58;;;1.00;;
61038;SDS011;46919;45.816;3.104;2022-10-16T03:30:30;1.38;;;1.08;;
61038;SDS011;46919;45.816;3.104;2022-10-16T03:32:55;2.92;;;1.30;;
61038;SDS011;46919;45.816;3.104;2022-10-16T03:35:21;4.40;;;1.73;;
61038;SDS011;46919;45.816;3.104;2022-10-16T03:37:47;1.80;;;1.30;;
61038;SDS011;46919;45.816;3.104;2022-10-16T03:40:13;1.13;;;1.00;;
61038;SDS011;46919;45.816;3.104;2022-10-16T03:42:38;1.83;;;1.00;;
61038;SDS011;46919;45.816;3.104;2022-10-16T03:45:04;4.53;;;1.27;;
61038;SDS011;46919;45.816;3.104;2022-10-16T03:47:30;4.40;;;1.00;;
61038;SDS011;46919;45.816;3.104;2022-10-16T03:49:58;5.40;;;1.10;;
61038;SDS011;46919;45.816;3.104;2022-10-16T03:52:23;4.70;;;1.40;;
61038;SDS011;46919;45.816;3.104;2022-10-16T03:54:49;3.50;;;1.20;;
61038;SDS011;46919;45.816;3.104;2022-10-16T03:57:14;2.15;;;1.20;;
61038;SDS011;46919;45.816;3.104;2022-10-16T03:59:39;3.63;;;1.20;;
61038;SDS011;46919;45.816;3.104;2022-10-16T04:02:05;2.10;;;1.15;;
61038;SDS011;46919;45.816;3.104;2022-10-16T04:04:30;2.85;;;1.20;;
61038;SDS011;46919;45.816;3.104;2022-10-16T04:06:55;3.80;;;1.30;;
61038;SDS011;46919;45.816;3.104;2022-10-16T04:09:21;1.75;;;1.15;;
61038;SDS011;46919;45.816;3.104;2022-10-16T04:11:46;1.58;;;1.10;;
61038;SDS011;46919;45.816;3.104;2022-10-16T04:14:12;2.70;;;1.10;;
61038;SDS011;46919;45.816;3.104;2022-10-16T04:16:37;2.10;;;1.15;;
61038;SDS011;46919;45.816;3.104;2022-10-16T04:19:03;1.35;;;1.08;;
61038;SDS011;46919;45.816;3.104;2022-10-16T04:21:28;3.00;;;1.25;;
61038;SDS011;46919;45.816;3.104;2022-10-16T04:23:53;3.40;;;1.50;;
61038;SDS011;46919;45.816;3.104;2022-10-16T04:26:19;2.75;;;1.20;;
61038;SDS011;46919;45.816;3.104;2022-10-16T04:28:44;2.22;;;1.27;;
61038;SDS011;46919;45.816;3.104;2022-10-16T04:31:09;3.58;;;1.38;;
61038;SDS011;46919;45.816;3.104;2022-10-16T04:33:35;3.35;;;1.23;;
61038;SDS011;46919;45.816;3.104;2022-10-16T04:36:00;3.78;;;1.25;;
61038;SDS011;46919;45.816;3.104;2022-10-16T04:38:27;3.95;;;1.52;;
61038;SDS011;46919;45.816;3.104;2022-10-16T04:40:52;2.67;;;1.20;;
61038;SDS011;46919;45.816;3.104;2022-10-16T04:43:18;1.77;;;1.25;;
61038;SDS011;46919;45.816;3.104;2022-10-16T04:45:43;3.22;;;1.42;;
61038;SDS011;46919;45.816;3.104;2022-10-16T04:48:09;3.53;;;1.52;;
61038;SDS011;46919;45.816;3.104;2022-10-16T04:50:35;2.70;;;1.55;;
61038;SDS011;46919;45.816;3.104;2022-10-16T04:53:00;5.22;;;1.55;;
61038;SDS011;46919;45.816;3.104;2022-10-16T04:55:25;1.65;;;1.20;;
61038;SDS011;46919;45.816;3.104;2022-10-16T04:57:51;1.65;;;1.20;;
61038;SDS011;46919;45.816;3.104;2022-10-16T05:00:17;1.80;;;1.13;;
61038;SDS011;46919;45.816;3.104;2022-10-16T05:02:42;2.15;;;1.20;;
61038;SDS011;46919;45.816;3.104;2022-10-16T05:05:08;2.97;;;1.25;;
61038;SDS011;46919;45.816;3.104;2022-10-16T05:07:33;2.90;;;1.10;;
61038;SDS011;46919;45.816;3.104;2022-10-16T05:09:59;1.20;;;1.10;;
61038;SDS011;46919;45.816;3.104;2022-10-16T05:12:24;3.22;;;1.30;;
61038;SDS011;46919;45.816;3.104;2022-10-16T05:14:49;6.40;;;4.05;;
61038;SDS011;46919;45.816;3.104;2022-10-16T05:17:15;4.50;;;2.28;;
61038;SDS011;46919;45.816;3.104;2022-10-16T05:19:40;3.58;;;1.55;;
61038;SDS011;46919;45.816;3.104;2022-10-16T05:22:05;3.90;;;1.67;;
61038;SDS011;46919;45.816;3.104;2022-10-16T05:24:31;2.83;;;1.30;;
61038;SDS011;46919;45.816;3.104;2022-10-16T05:26:56;5.68;;;1.50;;
61038;SDS011;46919;45.816;3.104;2022-10-16T05:29:22;2.92;;;1.33;;
61038;SDS011;46919;45.816;3.104;2022-10-16T05:31:49;2.20;;;1.58;;
61038;SDS011;46919;45.816;3.104;2022-10-16T05:34:15;1.90;;;1.67;;
61038;SDS011;46919;45.816;3.104;2022-10-16T05:36:41;3.05;;;1.48;;
61038;SDS011;46919;45.816;3.104;2022-10-16T05:39:06;2.45;;;1.38;;
61038;SDS011;46919;45.816;3.104;2022-10-16T05:41:32;2.33;;;1.80;;
61038;SDS011;46919;45.816;3.104;2022-10-16T05:43:57;1.65;;;1.50;;
61038;SDS011;46919;45.816;3.104;2022-10-16T05:46:22;1.83;;;1.70;;
61038;SDS011;46919;45.816;3.104;2022-10-16T05:48:48;4.22;;;1.60;;
61038;SDS011;46919;45.816;3.104;2022-10-16T05:51:13;3.20;;;1.77;;
61038;SDS011;46919;45.816;3.104;2022-10-16T05:53:40;4.47;;;1.85;;
61038;SDS011;46919;45.816;3.104;2022-10-16T05:56:06;5.25;;;1.77;;
61038;SDS011;46919;45.816;3.104;2022-10-16T05:58:34;3.05;;;2.03;;
61038;SDS011;46919;45.816;3.104;2022-10-16T06:01:05;3.78;;;1.98;;
61038;SDS011;46919;45.816;3.104;2022-10-16T06:03:36;3.95;;;2.05;;
61038;SDS011;46919;45.816;3.104;2022-10-16T06:08:35;3.45;;;2.20;;
61038;SDS011;46919;45.816;3.104;2022-10-16T06:11:01;5.60;;;1.90;;
61038;SDS011;46919;45.816;3.104;2022-10-16T06:13:28;3.10;;;2.10;;
61038;SDS011;46919;45.816;3.104;2022-10-16T06:15:56;5.45;;;2.30;;
61038;SDS011;46919;45.816;3.104;2022-10-16T06:18:22;4.50;;;2.15;;
61038;SDS011;46919;45.816;3.104;2022-10-16T06:20:48;4.63;;;2.30;;
61038;SDS011;46919;45.816;3.104;2022-10-16T06:23:13;3.47;;;2.15;;
61038;SDS011;46919;45.816;3.104;2022-10-16T06:25:39;2.35;;;2.15;;
61038;SDS011;46919;45.816;3.104;2022-10-16T06:28:04;5.53;;;2.20;;
61038;SDS011;46919;45.816;3.104;2022-10-16T06:30:29;4.57;;;2.60;;
61038;SDS011;46919;45.816;3.104;2022-10-16T06:32:55;2.85;;;2.35;;
61038;SDS011;46919;45.816;3.104;2022-10-16T06:35:20;2.65;;;2.42;;
61038;SDS011;46919;45.816;3.104;2022-10-16T06:37:45;2.95;;;2.40;;
61038;SDS011;46919;45.816;3.104;2022-10-16T06:40:11;3.05;;;2.65;;
61038;SDS011;46919;45.816;3.104;2022-10-16T06:42:36;5.93;;;2.80;;
61038;SDS011;46919;45.816;3.104;2022-10-16T06:45:02;4.35;;;3.13;;
61038;SDS011;46919;45.816;3.104;2022-10-16T06:47:27;6.75;;;3.25;;
61038;SDS011;46919;45.816;3.104;2022-10-16T06:49:53;3.42;;;3.10;;
61038;SDS011;46919;45.816;3.104;2022-10-16T06:52:18;4.38;;;3.25;;
61038;SDS011;46919;45.816;3.104;2022-10-16T06:54:43;4.15;;;3.25;;
61038;SDS011;46919;45.816;3.104;2022-10-16T06:57:09;4.43;;;3.10;;
61038;SDS011;46919;45.816;3.104;2022-10-16T06:59:34;4.05;;;2.60;;
61038;SDS011;46919;45.816;3.104;2022-10-16T07:02:00;3.47;;;2.28;;
61038;SDS011;46919;45.816;3.104;2022-10-16T07:04:25;3.28;;;2.38;;
61038;SDS011;46919;45.816;3.104;2022-10-16T07:06:50;4.25;;;2.50;;
61038;SDS011;46919;45.816;3.104;2022-10-16T07:09:16;5.60;;;2.92;;
61038;SDS011;46919;45.816;3.104;2022-10-16T07:11:42;8.27;;;2.95;;
61038;SDS011;46919;45.816;3.104;2022-10-16T07:14:17;5.13;;;2.30;;
61038;SDS011;46919;45.816;3.104;2022-10-16T07:16:43;5.22;;;3.22;;
61038;SDS011;46919;45.816;3.104;2022-10-16T07:19:09;3.38;;;2.97;;
61038;SDS011;46919;45.816;3.104;2022-10-16T07:21:37;4.47;;;2.90;;
61038;SDS011;46919;45.816;3.104;2022-10-16T07:24:03;3.53;;;2.65;;
61038;SDS011;46919;45.816;3.104;2022-10-16T07:26:36;2.97;;;2.60;;
61038;SDS011;46919;45.816;3.104;2022-10-16T07:29:04;3.17;;;2.60;;
61038;SDS011;46919;45.816;3.104;2022-10-16T07:31:30;3.30;;;2.33;;
61038;SDS011;46919;45.816;3.104;2022-10-16T07:33:55;2.38;;;2.17;;
61038;SDS011;46919;45.816;3.104;2022-10-16T07:36:23;2.63;;;2.40;;
61038;SDS011;46919;45.816;3.104;2022-10-16T07:38:48;5.75;;;2.85;;
61038;SDS011;46919;45.816;3.104;2022-10-16T07:41:16;3.30;;;2.58;;
61038;SDS011;46919;45.816;3.104;2022-10-16T07:43:46;3.70;;;2.85;;
61038;SDS011;46919;45.816;3.104;2022-10-16T07:46:13;4.22;;;2.65;;
61038;SDS011;46919;45.816;3.104;2022-10-16T07:48:39;3.08;;;2.78;;
61038;SDS011;46919;45.816;3.104;2022-10-16T07:51:05;4.13;;;3.00;;
61038;SDS011;46919;45.816;3.104;2022-10-16T07:53:32;5.38;;;3.17;;
61038;SDS011;46919;45.816;3.104;2022-10-16T07:55:58;5.38;;;3.05;;
61038;SDS011;46919;45.816;3.104;2022-10-16T07:58:24;4.15;;;3.30;;
61038;SDS011;46919;45.816;3.104;2022-10-16T08:00:50;3.80;;;3.05;;
61038;SDS011;46919;45.816;3.104;2022-10-16T08:03:15;3.38;;;2.85;;
61038;SDS011;46919;45.816;3.104;2022-10-16T08:05:41;5.53;;;3.10;;
61038;SDS011;46919;45.816;3.104;2022-10-16T08:08:06;4.78;;;3.38;;
61038;SDS011;46919;45.816;3.104;2022-10-16T08:10:36;4.32;;;3.20;;
61038;SDS011;46919;45.816;3.104;2022-10-16T08:13:01;4.47;;;3.30;;
61038;SDS011;46919;45.816;3.104;2022-10-16T08:15:27;4.88;;;3.50;;
61038;SDS011;46919;45.816;3.104;2022-10-16T08:17:56;5.97;;;3.63;;
61038;SDS011;46919;45.816;3.104;2022-10-16T08:20:26;3.58;;;3.25;;
61038;SDS011;46919;45.816;3.104;2022-10-16T08:22:53;4.30;;;3.30;;
61038;SDS011;46919;45.816;3.104;2022-10-16T08:25:19;6.82;;;3.72;;
61038;SDS011;46919;45.816;3.104;2022-10-16T08:27:46;5.65;;;3.40;;
61038;SDS011;46919;45.816;3.104;2022-10-16T08:30:12;4.25;;;3.40;;
61038;SDS011;46919;45.816;3.104;2022-10-16T08:32:38;6.22;;;3.30;;
61038;SDS011;46919;45.816;3.104;2022-10-16T08:35:03;6.70;;;3.97;;
61038;SDS011;46919;45.816;3.104;2022-10-16T08:37:32;5.60;;;3.33;;
61038;SDS011;46919;45.816;3.104;2022-10-16T08:39:58;4.50;;;3.45;;
61038;SDS011;46919;45.816;3.104;2022-10-16T08:51:18;3.85;;;3.00;;
61038;SDS011;46919;45.816;3.104;2022-10-16T08:53:51;5.30;;;3.05;;
61038;SDS011;46919;45.816;3.104;2022-10-16T08:56:37;3.10;;;2.78;;
61038;SDS011;46919;45.816;3.104;2022-10-16T08:59:03;3.30;;;3.00;;
61038;SDS011;46919;45.816;3.104;2022-10-16T09:01:41;5.82;;;3.22;;
61038;SDS011;46919;45.816;3.104;2022-10-16T09:12:30;4.68;;;3.10;;
61038;SDS011;46919;45.816;3.104;2022-10-16T09:15:29;4.53;;;3.25;;
61038;SDS011;46919;45.816;3.104;2022-10-16T09:20:49;3.80;;;3.47;;
61038;SDS011;46919;45.816;3.104;2022-10-16T09:23:19;5.32;;;3.30;;
61038;SDS011;46919;45.816;3.104;2022-10-16T09:25:50;5.15;;;3.35;;
61038;SDS011;46919;45.816;3.104;2022-10-16T09:28:17;4.57;;;3.42;;
61038;SDS011;46919;45.816;3.104;2022-10-16T09:30:43;6.03;;;3.38;;
61038;SDS011;46919;45.816;3.104;2022-10-16T09:33:10;5.20;;;3.58;;
61038;SDS011;46919;45.816;3.104;2022-10-16T09:35:47;5.15;;;3.50;;
61038;SDS011;46919;45.816;3.104;2022-10-16T09:38:24;4.43;;;3.58;;
61038;SDS011;46919;45.816;3.104;2022-10-16T09:40:53;5.57;;;3.50;;
61038;SDS011;46919;45.816;3.104;2022-10-16T09:46:05;5.38;;;3.65;;
61038;SDS011;46919;45.816;3.104;2022-10-16T09:48:44;4.70;;;3.50;;
61038;SDS011;46919;45.816;3.104;2022-10-16T09:51:33;4.22;;;3.22;;
61038;SDS011;46919;45.816;3.104;2022-10-16T09:56:34;5.15;;;3.50;;
61038;SDS011;46919;45.816;3.104;2022-10-16T09:59:02;5.68;;;3.35;;
61038;SDS011;46919;45.816;3.104;2022-10-16T10:01:36;8.13;;;3.50;;
61038;SDS011;46919;45.816;3.104;2022-10-16T10:04:03;4.03;;;3.38;;
61038;SDS011;46919;45.816;3.104;2022-10-16T10:06:33;4.90;;;2.88;;
61038;SDS011;46919;45.816;3.104;2022-10-16T10:09:04;3.65;;;2.75;;
61038;SDS011;46919;45.816;3.104;2022-10-16T10:11:43;3.80;;;2.90;;
61038;SDS011;46919;45.816;3.104;2022-10-16T10:14:20;5.38;;;3.20;;
61038;SDS011;46919;45.816;3.104;2022-10-16T10:16:46;3.53;;;3.15;;
61038;SDS011;46919;45.816;3.104;2022-10-16T10:19:16;6.95;;;2.90;;
61038;SDS011;46919;45.816;3.104;2022-10-16T10:21:43;5.35;;;3.10;;
61038;SDS011;46919;45.816;3.104;2022-10-16T10:24:13;6.80;;;2.85;;
61038;SDS011;46919;45.816;3.104;2022-10-16T10:32:37;6.40;;;2.72;;
61038;SDS011;46919;45.816;3.104;2022-10-16T10:35:27;3.45;;;2.60;;
61038;SDS011;46919;45.816;3.104;2022-10-16T10:38:06;4.75;;;2.60;;
61038;SDS011;46919;45.816;3.104;2022-10-16T10:46:05;5.22;;;2.30;;
61038;SDS011;46919;45.816;3.104;2022-10-16T10:51:47;3.60;;;2.10;;
61038;SDS011;46919;45.816;3.104;2022-10-16T10:54:19;4.68;;;2.20;;
61038;SDS011;46919;45.816;3.104;2022-10-16T10:56:51;4.68;;;2.30;;
61038;SDS011;46919;45.816;3.104;2022-10-16T10:59:36;3.00;;;2.10;;
61038;SDS011;46919;45.816;3.104;2022-10-16T11:02:18;3.53;;;2.27;;
61038;SDS011;46919;45.816;3.104;2022-10-16T11:05:09;2.63;;;2.40;;
61038;SDS011;46919;45.816;3.104;2022-10-16T11:08:04;5.93;;;2.20;;
61038;SDS011;46919;45.816;3.104;2022-10-16T11:13:15;4.82;;;2.40;;
61038;SDS011;46919;45.816;3.104;2022-10-16T11:15:42;3.92;;;2.10;;
61038;SDS011;46919;45.816;3.104;2022-10-16T11:21:12;3.72;;;2.22;;
61038;SDS011;46919;45.816;3.104;2022-10-16T11:23:55;2.92;;;1.98;;
61038;SDS011;46919;45.816;3.104;2022-10-16T11:26:27;3.53;;;2.30;;
61038;SDS011;46919;45.816;3.104;2022-10-16T11:28:58;2.28;;;2.08;;
61038;SDS011;46919;45.816;3.104;2022-10-16T11:31:35;2.40;;;1.85;;
61038;SDS011;46919;45.816;3.104;2022-10-16T11:37:14;3.85;;;2.20;;
61038;SDS011;46919;45.816;3.104;2022-10-16T11:39:45;3.25;;;1.90;;
61038;SDS011;46919;45.816;3.104;2022-10-16T11:42:22;2.90;;;1.80;;
61038;SDS011;46919;45.816;3.104;2022-10-16T11:44:55;6.47;;;2.40;;
61038;SDS011;46919;45.816;3.104;2022-10-16T11:47:31;2.05;;;1.70;;
61038;SDS011;46919;45.816;3.104;2022-10-16T11:52:39;6.57;;;2.05;;
61038;SDS011;46919;45.816;3.104;2022-10-16T11:55:23;3.13;;;1.70;;
61038;SDS011;46919;45.816;3.104;2022-10-16T12:00:51;6.60;;;2.10;;
61038;SDS011;46919;45.816;3.104;2022-10-16T12:06:34;2.78;;;1.95;;
61038;SDS011;46919;45.816;3.104;2022-10-16T12:09:09;3.53;;;1.77;;
61038;SDS011;46919;45.816;3.104;2022-10-16T12:11:44;3.45;;;1.70;;
61038;SDS011;46919;45.816;3.104;2022-10-16T12:16:37;4.43;;;1.67;;
61038;SDS011;46919;45.816;3.104;2022-10-16T12:19:26;2.42;;;1.80;;
61038;SDS011;46919;45.816;3.104;2022-10-16T12:21:57;1.95;;;1.65;;
61038;SDS011;46919;45.816;3.104;2022-10-16T12:24:31;5.22;;;1.60;;
61038;SDS011;46919;45.816;3.104;2022-10-16T12:26:59;5.45;;;1.77;;
61038;SDS011;46919;45.816;3.104;2022-10-16T12:29:31;3.55;;;1.77;;
61038;SDS011;46919;45.816;3.104;2022-10-16T12:31:57;3.75;;;1.60;;
61038;SDS011;46919;45.816;3.104;2022-10-16T12:37:08;3.88;;;1.50;;
61038;SDS011;46919;45.816;3.104;2022-10-16T12:39:34;3.53;;;1.40;;
61038;SDS011;46919;45.816;3.104;2022-10-16T12:42:05;4.15;;;1.50;;
61038;SDS011;46919;45.816;3.104;2022-10-16T12:44:44;1.92;;;1.50;;
61038;SDS011;46919;45.816;3.104;2022-10-16T12:47:19;8.77;;;1.63;;
61038;SDS011;46919;45.816;3.104;2022-10-16T12:49:59;3.78;;;1.83;;
61038;SDS011;46919;45.816;3.104;2022-10-16T12:52:26;3.22;;;1.50;;
61038;SDS011;46919;45.816;3.104;2022-10-16T12:54:56;2.58;;;1.50;;
61038;SDS011;46919;45.816;3.104;2022-10-16T13:17:04;2.47;;;1.63;;
61038;SDS011;46919;45.816;3.104;2022-10-16T13:19:38;2.58;;;1.42;;
61038;SDS011;46919;45.816;3.104;2022-10-16T13:30:24;1.98;;;1.40;;
61038;SDS011;46919;45.816;3.104;2022-10-16T13:33:03;2.65;;;1.40;;
61038;SDS011;46919;45.816;3.104;2022-10-16T13:35:53;4.22;;;1.60;;
61038;SDS011;46919;45.816;3.104;2022-10-16T13:38:26;3.22;;;1.60;;
61038;SDS011;46919;45.816;3.104;2022-10-16T13:40:56;3.88;;;1.60;;
61038;SDS011;46919;45.816;3.104;2022-10-16T13:43:59;3.65;;;1.67;;
61038;SDS011;46919;45.816;3.104;2022-10-16T13:46:19;2.97;;;1.60;;
61038;SDS011;46919;45.816;3.104;2022-10-16T13:48:56;5.30;;;1.80;;
61038;SDS011;46919;45.816;3.104;2022-10-16T13:51:22;2.47;;;1.70;;
61038;SDS011;46919;45.816;3.104;2022-10-16T13:53:48;2.10;;;1.50;;
61038;SDS011;46919;45.816;3.104;2022-10-16T13:56:15;3.40;;;1.73;;
61038;SDS011;46919;45.816;3.104;2022-10-16T13:58:42;4.07;;;1.63;;
61038;SDS011;46919;45.816;3.104;2022-10-16T14:01:15;2.13;;;1.77;;
61038;SDS011;46919;45.816;3.104;2022-10-16T14:03:41;6.32;;;1.63;;
61038;SDS011;46919;45.816;3.104;2022-10-16T14:06:11;2.78;;;1.85;;
61038;SDS011;46919;45.816;3.104;2022-10-16T14:08:43;2.63;;;1.80;;
61038;SDS011;46919;45.816;3.104;2022-10-16T14:11:11;4.47;;;1.73;;
61038;SDS011;46919;45.816;3.104;2022-10-16T14:13:38;3.85;;;1.80;;
61038;SDS011;46919;45.816;3.104;2022-10-16T14:16:09;3.08;;;1.65;;
61038;SDS011;46919;45.816;3.104;2022-10-16T14:18:40;4.30;;;1.92;;
61038;SDS011;46919;45.816;3.104;2022-10-16T14:21:06;3.55;;;1.77;;
61038;SDS011;46919;45.816;3.104;2022-10-16T14:23:37;3.78;;;1.70;;
61038;SDS011;46919;45.816;3.104;2022-10-16T14:28:33;2.10;;;1.58;;
61038;SDS011;46919;45.816;3.104;2022-10-16T14:30:59;2.92;;;1.80;;
61038;SDS011;46919;45.816;3.104;2022-10-16T14:36:13;4.57;;;1.75;;
61038;SDS011;46919;45.816;3.104;2022-10-16T14:38:48;5.00;;;1.90;;
61038;SDS011;46919;45.816;3.104;2022-10-16T14:41:22;4.60;;;1.60;;
61038;SDS011;46919;45.816;3.104;2022-10-16T14:43:50;3.63;;;1.80;;
61038;SDS011;46919;45.816;3.104;2022-10-16T14:46:19;3.08;;;2.00;;
61038;SDS011;46919;45.816;3.104;2022-10-16T14:48:51;3.38;;;1.88;;
61038;SDS011;46919;45.816;3.104;2022-10-16T14:51:22;3.38;;;2.13;;
61038;SDS011;46919;45.816;3.104;2022-10-16T14:53:49;4.22;;;1.83;;
61038;SDS011;46919;45.816;3.104;2022-10-16T14:56:18;4.88;;;1.70;;
61038;SDS011;46919;45.816;3.104;2022-10-16T14:58:46;3.38;;;1.75;;
61038;SDS011;46919;45.816;3.104;2022-10-16T15:01:12;5.15;;;1.67;;
61038;SDS011;46919;45.816;3.104;2022-10-16T15:03:38;3.78;;;1.67;;
61038;SDS011;46919;45.816;3.104;2022-10-16T15:06:03;2.97;;;1.35;;
61038;SDS011;46919;45.816;3.104;2022-10-16T15:08:36;3.53;;;1.67;;
61038;SDS011;46919;45.816;3.104;2022-10-16T15:11:02;3.25;;;1.38;;
61038;SDS011;46919;45.816;3.104;2022-10-16T15:13:27;4.95;;;1.67;;
61038;SDS011;46919;45.816;3.104;2022-10-16T15:15:52;3.80;;;1.80;;
61038;SDS011;46919;45.816;3.104;2022-10-16T15:18:18;4.78;;;1.60;;
61038;SDS011;46919;45.816;3.104;2022-10-16T15:20:50;2.80;;;1.75;;
61038;SDS011;46919;45.816;3.104;2022-10-16T15:23:17;4.55;;;1.58;;
61038;SDS011;46919;45.816;3.104;2022-10-16T15:25:45;4.47;;;1.50;;
61038;SDS011;46919;45.816;3.104;2022-10-16T15:28:13;2.70;;;1.73;;
61038;SDS011;46919;45.816;3.104;2022-10-16T15:30:40;2.58;;;1.70;;
61038;SDS011;46919;45.816;3.104;2022-10-16T15:33:10;2.85;;;1.77;;
61038;SDS011;46919;45.816;3.104;2022-10-16T15:35:39;2.47;;;1.73;;
61038;SDS011;46919;45.816;3.104;2022-10-16T15:38:05;4.15;;;1.65;;
61038;SDS011;46919;45.816;3.104;2022-10-16T15:40:30;4.40;;;1.90;;
61038;SDS011;46919;45.816;3.104;2022-10-16T15:42:55;6.53;;;2.08;;
61038;SDS011;46919;45.816;3.104;2022-10-16T15:45:21;2.50;;;1.83;;
61038;SDS011;46919;45.816;3.104;2022-10-16T15:47:46;2.92;;;2.15;;
61038;SDS011;46919;45.816;3.104;2022-10-16T15:50:13;3.88;;;1.73;;
61038;SDS011;46919;45.816;3.104;2022-10-16T15:52:40;5.25;;;2.05;;
61038;SDS011;46919;45.816;3.104;2022-10-16T15:55:07;7.40;;;2.03;;
61038;SDS011;46919;45.816;3.104;2022-10-16T15:57:33;3.95;;;1.90;;
61038;SDS011;46919;45.816;3.104;2022-10-16T15:59:59;5.18;;;1.80;;
61038;SDS011;46919;45.816;3.104;2022-10-16T16:02:24;4.05;;;1.70;;
61038;SDS011;46919;45.816;3.104;2022-10-16T16:04:49;3.50;;;1.80;;
61038;SDS011;46919;45.816;3.104;2022-10-16T16:07:15;6.20;;;2.13;;
61038;SDS011;46919;45.816;3.104;2022-10-16T16:09:40;3.33;;;1.73;;
61038;SDS011;46919;45.816;3.104;2022-10-16T16:12:05;4.78;;;1.60;;
61038;SDS011;46919;45.816;3.104;2022-10-16T16:14:31;2.92;;;1.80;;
61038;SDS011;46919;45.816;3.104;2022-10-16T16:16:57;5.25;;;1.73;;
61038;SDS011;46919;45.816;3.104;2022-10-16T16:19:22;3.30;;;1.73;;
61038;SDS011;46919;45.816;3.104;2022-10-16T16:21:48;6.38;;;2.13;;
61038;SDS011;46919;45.816;3.104;2022-10-16T16:24:14;2.25;;;1.70;;
61038;SDS011;46919;45.816;3.104;2022-10-16T16:26:40;5.78;;;2.08;;
61038;SDS011;46919;45.816;3.104;2022-10-16T16:29:09;4.05;;;1.65;;
61038;SDS011;46919;45.816;3.104;2022-10-16T16:31:38;2.97;;;1.83;;
61038;SDS011;46919;45.816;3.104;2022-10-16T16:34:03;3.63;;;1.80;;
61038;SDS011;46919;45.816;3.104;2022-10-16T16:36:29;5.50;;;1.83;;
61038;SDS011;46919;45.816;3.104;2022-10-16T16:38:54;3.83;;;1.88;;
61038;SDS011;46919;45.816;3.104;2022-10-16T16:41:22;2.90;;;2.00;;
61038;SDS011;46919;45.816;3.104;2022-10-16T16:43:50;5.05;;;2.25;;
61038;SDS011;46919;45.816;3.104;2022-10-16T16:46:18;3.15;;;1.70;;
61038;SDS011;46919;45.816;3.104;2022-10-16T16:48:44;6.18;;;2.20;;
61038;SDS011;46919;45.816;3.104;2022-10-16T16:51:13;5.20;;;2.10;;
61038;SDS011;46919;45.816;3.104;2022-10-16T16:53:44;4.90;;;1.80;;
61038;SDS011;46919;45.816;3.104;2022-10-16T16:56:17;4.40;;;1.60;;
61038;SDS011;46919;45.816;3.104;2022-10-16T16:58:46;2.95;;;2.20;;
61038;SDS011;46919;45.816;3.104;2022-10-16T17:01:14;5.20;;;1.83;;